Aviation Digital Data Service (ADDS)

Output produced by TAFs form (0951 UTC 22 September 2017)
found at http://www.aviationweather.gov/adds/tafs/
 
METAR text: RORS 220900Z 03005KT 9999 -SHRA SCT016 BKN/// 30/26 Q1010
Conditions at: RORS (SHIMOJI-SHIMA IS, JP) observed 0900 UTC 22 September 2017
Temperature: 30.0°C (86°F)
Dewpoint: 26.0°C (79°F) [RH = 79%]
Pressure (altimeter): 29.82 inches Hg (1010.0 mb)
Winds: from the NNE (30 degrees) at 6 MPH (5 knots; 2.6 m/s)
Visibility: 6 or more miles (10+ km)
Ceiling: at least 12,000 feet AGL
Clouds: scattered clouds at 1600 feet AGL
Weather: -SHRA  (light rain showers)